sensor_id;sensor_type;location;lat;lon;timestamp;temperature;humidity
1091;DHT22;534;48.704;9.122;2022-12-08T04:01:01;2.90;79.80
1091;DHT22;534;48.704;9.122;2022-12-08T04:03:28;2.90;79.60
1091;DHT22;534;48.704;9.122;2022-12-08T04:05:54;2.80;79.60
1091;DHT22;534;48.704;9.122;2022-12-08T04:08:21;2.80;79.70
1091;DHT22;534;48.704;9.122;2022-12-08T04:10:48;2.80;79.90
1091;DHT22;534;48.704;9.122;2022-12-08T04:13:15;2.70;80.10
1091;DHT22;534;48.704;9.122;2022-12-08T04:15:44;2.70;80.10
1091;DHT22;534;48.704;9.122;2022-12-08T04:18:12;2.80;80.30
1091;DHT22;534;48.704;9.122;2022-12-08T04:20:39;2.70;80.50
1091;DHT22;534;48.704;9.122;2022-12-08T04:23:06;2.70;81.00
1091;DHT22;534;48.704;9.122;2022-12-08T04:25:33;2.70;80.70
1091;DHT22;534;48.704;9.122;2022-12-08T04:27:59;2.70;80.50
1091;DHT22;534;48.704;9.122;2022-12-08T04:30:26;2.70;80.50
1091;DHT22;534;48.704;9.122;2022-12-08T04:32:53;2.70;80.60
1091;DHT22;534;48.704;9.122;2022-12-08T04:35:21;2.70;80.60
1091;DHT22;534;48.704;9.122;2022-12-08T04:37:48;2.70;80.60
1091;DHT22;534;48.704;9.122;2022-12-08T04:40:15;2.70;80.40
1091;DHT22;534;48.704;9.122;2022-12-08T04:42:41;2.70;79.80
1091;DHT22;534;48.704;9.122;2022-12-08T04:45:09;2.70;79.90
1091;DHT22;534;48.704;9.122;2022-12-08T04:47:36;2.70;79.80
1091;DHT22;534;48.704;9.122;2022-12-08T04:50:03;2.70;79.40
1091;DHT22;534;48.704;9.122;2022-12-08T04:52:31;2.70;79.20
1091;DHT22;534;48.704;9.122;2022-12-08T04:54:58;2.60;79.50
1091;DHT22;534;48.704;9.122;2022-12-08T04:57:24;2.60;79.70
1091;DHT22;534;48.704;9.122;2022-12-08T04:59:52;2.60;79.90
1091;DHT22;534;48.704;9.122;2022-12-08T05:02:19;2.60;80.10
1091;DHT22;534;48.704;9.122;2022-12-08T05:04:45;2.60;80.10
1091;DHT22;534;48.704;9.122;2022-12-08T05:07:12;2.60;79.60
1091;DHT22;534;48.704;9.122;2022-12-08T05:09:40;2.60;79.40
1091;DHT22;534;48.704;9.122;2022-12-08T05:12:07;2.60;79.30
1091;DHT22;534;48.704;9.122;2022-12-08T05:14:33;2.60;79.50
1091;DHT22;534;48.704;9.122;2022-12-08T05:17:00;2.60;79.50
1091;DHT22;534;48.704;9.122;2022-12-08T05:19:27;2.50;79.70
1091;DHT22;534;48.704;9.122;2022-12-08T05:21:53;2.50;79.70
1091;DHT22;534;48.704;9.122;2022-12-08T05:24:20;2.50;80.10
1091;DHT22;534;48.704;9.122;2022-12-08T05:26:48;2.50;80.10
1091;DHT22;534;48.704;9.122;2022-12-08T05:29:15;2.40;80.40
1091;DHT22;534;48.704;9.122;2022-12-08T05:31:42;2.50;80.50
1091;DHT22;534;48.704;9.122;2022-12-08T05:34:08;2.50;80.50
1091;DHT22;534;48.704;9.122;2022-12-08T05:36:35;2.50;80.60
1091;DHT22;534;48.704;9.122;2022-12-08T05:39:02;2.40;80.60
1091;DHT22;534;48.704;9.122;2022-12-08T05:41:29;2.40;80.60
1091;DHT22;534;48.704;9.122;2022-12-08T05:43:57;2.40;80.60
1091;DHT22;534;48.704;9.122;2022-12-08T05:46:23;2.40;80.50
1091;DHT22;534;48.704;9.122;2022-12-08T05:48:50;2.50;80.30
1091;DHT22;534;48.704;9.122;2022-12-08T05:51:19;2.60;80.10
1091;DHT22;534;48.704;9.122;2022-12-08T05:53:47;2.60;79.70
1091;DHT22;534;48.704;9.122;2022-12-08T05:56:14;2.50;79.60
1091;DHT22;534;48.704;9.122;2022-12-08T05:58:41;2.50;79.70
1091;DHT22;534;48.704;9.122;2022-12-08T06:01:18;2.50;79.70
1091;DHT22;534;48.704;9.122;2022-12-08T06:03:45;2.50;79.70
1091;DHT22;534;48.704;9.122;2022-12-08T06:06:12;2.50;80.10
1091;DHT22;534;48.704;9.122;2022-12-08T06:08:38;2.50;79.60
1091;DHT22;534;48.704;9.122;2022-12-08T06:11:05;2.50;79.60
1091;DHT22;534;48.704;9.122;2022-12-08T06:13:32;2.50;79.70
1091;DHT22;534;48.704;9.122;2022-12-08T06:16:03;2.40;79.90
1091;DHT22;534;48.704;9.122;2022-12-08T06:18:31;2.50;79.70
1091;DHT22;534;48.704;9.122;2022-12-08T06:21:02;2.50;79.60
1091;DHT22;534;48.704;9.122;2022-12-08T06:23:29;2.50;79.40
1091;DHT22;534;48.704;9.122;2022-12-08T06:25:59;2.50;79.40
1091;DHT22;534;48.704;9.122;2022-12-08T06:28:26;2.50;79.40
1091;DHT22;534;48.704;9.122;2022-12-08T06:30:53;2.40;79.70
1091;DHT22;534;48.704;9.122;2022-12-08T06:33:20;2.40;79.90
1091;DHT22;534;48.704;9.122;2022-12-08T06:35:48;2.40;80.10
1091;DHT22;534;48.704;9.122;2022-12-08T06:38:14;2.30;80.20
1091;DHT22;534;48.704;9.122;2022-12-08T06:40:41;2.30;80.30
1091;DHT22;534;48.704;9.122;2022-12-08T06:43:08;2.20;80.60
1091;DHT22;534;48.704;9.122;2022-12-08T06:45:35;2.10;81.20
1091;DHT22;534;48.704;9.122;2022-12-08T06:48:01;2.20;80.80
1091;DHT22;534;48.704;9.122;2022-12-08T06:50:28;2.20;80.70
1091;DHT22;534;48.704;9.122;2022-12-08T06:52:56;2.20;80.80
1091;DHT22;534;48.704;9.122;2022-12-08T06:55:23;2.30;80.40
1091;DHT22;534;48.704;9.122;2022-12-08T06:57:50;2.20;80.30
1091;DHT22;534;48.704;9.122;2022-12-08T07:00:17;2.20;80.20
1091;DHT22;534;48.704;9.122;2022-12-08T07:02:44;2.20;80.40
1091;DHT22;534;48.704;9.122;2022-12-08T07:05:10;2.20;80.20
1091;DHT22;534;48.704;9.122;2022-12-08T07:07:37;2.20;80.30
1091;DHT22;534;48.704;9.122;2022-12-08T07:10:07;2.20;80.20
1091;DHT22;534;48.704;9.122;2022-12-08T07:12:33;2.30;80.00
1091;DHT22;534;48.704;9.122;2022-12-08T07:15:00;2.30;79.80
1091;DHT22;534;48.704;9.122;2022-12-08T07:17:27;2.30;79.90
1091;DHT22;534;48.704;9.122;2022-12-08T07:19:53;2.40;79.90
1091;DHT22;534;48.704;9.122;2022-12-08T07:22:20;2.40;79.60
1091;DHT22;534;48.704;9.122;2022-12-08T07:24:47;2.50;79.50
1091;DHT22;534;48.704;9.122;2022-12-08T07:27:15;2.50;79.30
1091;DHT22;534;48.704;9.122;2022-12-08T07:29:41;2.60;78.90
1091;DHT22;534;48.704;9.122;2022-12-08T07:32:08;2.60;78.90
1091;DHT22;534;48.704;9.122;2022-12-08T07:34:35;2.60;78.80
1091;DHT22;534;48.704;9.122;2022-12-08T07:37:02;2.50;78.80
1091;DHT22;534;48.704;9.122;2022-12-08T07:39:28;2.60;78.90
1091;DHT22;534;48.704;9.122;2022-12-08T07:41:55;2.70;78.90
1091;DHT22;534;48.704;9.122;2022-12-08T07:44:23;2.90;78.50
1091;DHT22;534;48.704;9.122;2022-12-08T07:46:50;3.20;77.30
1091;DHT22;534;48.704;9.122;2022-12-08T07:49:16;3.50;76.10
1091;DHT22;534;48.704;9.122;2022-12-08T07:51:43;3.50;75.30
1091;DHT22;534;48.704;9.122;2022-12-08T07:54:10;3.30;75.50
1091;DHT22;534;48.704;9.122;2022-12-08T07:56:37;3.00;76.20
1091;DHT22;534;48.704;9.122;2022-12-08T07:59:04;2.90;77.10
1091;DHT22;534;48.704;9.122;2022-12-08T08:01:33;2.70;78.00
1091;DHT22;534;48.704;9.122;2022-12-08T08:04:02;2.40;79.00
1091;DHT22;534;48.704;9.122;2022-12-08T08:06:30;2.30;79.90
1091;DHT22;534;48.704;9.122;2022-12-08T08:08:57;2.10;81.20
1091;DHT22;534;48.704;9.122;2022-12-08T08:11:23;2.10;81.70
1091;DHT22;534;48.704;9.122;2022-12-08T08:13:50;2.20;81.50
1091;DHT22;534;48.704;9.122;2022-12-08T08:16:18;2.30;81.80
1091;DHT22;534;48.704;9.122;2022-12-08T08:18:47;2.50;81.30
1091;DHT22;534;48.704;9.122;2022-12-08T08:21:14;2.70;80.60
1091;DHT22;534;48.704;9.122;2022-12-08T08:23:41;2.40;80.70
1091;DHT22;534;48.704;9.122;2022-12-08T08:26:09;2.30;81.80
1091;DHT22;534;48.704;9.122;2022-12-08T08:28:35;2.50;81.80
1091;DHT22;534;48.704;9.122;2022-12-08T08:31:03;2.70;80.90
1091;DHT22;534;48.704;9.122;2022-12-08T08:33:30;3.00;80.70
1091;DHT22;534;48.704;9.122;2022-12-08T08:35:58;3.30;79.20
1091;DHT22;534;48.704;9.122;2022-12-08T08:38:25;3.40;79.20
1091;DHT22;534;48.704;9.122;2022-12-08T08:40:52;3.50;78.40
1091;DHT22;534;48.704;9.122;2022-12-08T08:43:18;3.80;78.30
1091;DHT22;534;48.704;9.122;2022-12-08T08:45:55;3.60;76.60
1091;DHT22;534;48.704;9.122;2022-12-08T08:48:23;3.70;77.40
1091;DHT22;534;48.704;9.122;2022-12-08T08:50:50;3.90;76.10
1091;DHT22;534;48.704;9.122;2022-12-08T08:53:19;4.40;74.80
1091;DHT22;534;48.704;9.122;2022-12-08T08:55:47;4.40;73.80
1091;DHT22;534;48.704;9.122;2022-12-08T08:58:14;4.50;74.60
1091;DHT22;534;48.704;9.122;2022-12-08T09:00:42;4.10;74.00
1091;DHT22;534;48.704;9.122;2022-12-08T09:03:09;3.70;75.50
1091;DHT22;534;48.704;9.122;2022-12-08T09:05:37;3.40;76.40
1091;DHT22;534;48.704;9.122;2022-12-08T09:08:04;3.30;77.50
1091;DHT22;534;48.704;9.122;2022-12-08T09:10:32;3.30;79.00
1091;DHT22;534;48.704;9.122;2022-12-08T09:13:00;3.20;78.70
1091;DHT22;534;48.704;9.122;2022-12-08T09:15:26;3.00;78.50
1091;DHT22;534;48.704;9.122;2022-12-08T09:17:53;3.00;80.00
1091;DHT22;534;48.704;9.122;2022-12-08T09:20:20;3.00;80.80
1091;DHT22;534;48.704;9.122;2022-12-08T09:22:47;3.20;80.90
1091;DHT22;534;48.704;9.122;2022-12-08T09:25:13;3.10;80.50
1091;DHT22;534;48.704;9.122;2022-12-08T09:27:41;3.10;81.30
1091;DHT22;534;48.704;9.122;2022-12-08T09:30:09;3.00;80.90
1091;DHT22;534;48.704;9.122;2022-12-08T09:32:35;3.00;80.80
1091;DHT22;534;48.704;9.122;2022-12-08T09:35:02;3.00;80.30
1091;DHT22;534;48.704;9.122;2022-12-08T09:37:29;3.20;80.70
1091;DHT22;534;48.704;9.122;2022-12-08T09:39:56;3.20;79.30
1091;DHT22;534;48.704;9.122;2022-12-08T09:42:32;3.20;80.30
1091;DHT22;534;48.704;9.122;2022-12-08T09:45:06;3.10;80.20
1091;DHT22;534;48.704;9.122;2022-12-08T09:47:37;3.10;81.10
1091;DHT22;534;48.704;9.122;2022-12-08T09:50:09;3.20;80.20
1091;DHT22;534;48.704;9.122;2022-12-08T09:52:40;3.20;80.30
1091;DHT22;534;48.704;9.122;2022-12-08T09:55:14;3.20;80.50
1091;DHT22;534;48.704;9.122;2022-12-08T09:57:42;3.10;81.60
1091;DHT22;534;48.704;9.122;2022-12-08T10:00:12;3.20;82.10
1091;DHT22;534;48.704;9.122;2022-12-08T10:02:39;3.10;81.00
1091;DHT22;534;48.704;9.122;2022-12-08T10:05:12;3.20;80.70
1091;DHT22;534;48.704;9.122;2022-12-08T10:07:44;3.40;80.90
1091;DHT22;534;48.704;9.122;2022-12-08T10:10:21;3.70;80.30
1091;DHT22;534;48.704;9.122;2022-12-08T10:12:53;4.10;78.90
1091;DHT22;534;48.704;9.122;2022-12-08T10:15:39;4.00;77.60
1091;DHT22;534;48.704;9.122;2022-12-08T10:18:13;4.10;78.10
1091;DHT22;534;48.704;9.122;2022-12-08T10:20:41;3.80;79.20
1091;DHT22;534;48.704;9.122;2022-12-08T10:23:18;3.60;79.20
1091;DHT22;534;48.704;9.122;2022-12-08T10:25:48;3.70;79.90
1091;DHT22;534;48.704;9.122;2022-12-08T10:28:15;3.70;80.50
1091;DHT22;534;48.704;9.122;2022-12-08T10:30:43;3.90;80.20
1091;DHT22;534;48.704;9.122;2022-12-08T10:33:13;4.20;79.40
1091;DHT22;534;48.704;9.122;2022-12-08T10:35:46;4.20;78.00
1091;DHT22;534;48.704;9.122;2022-12-08T10:38:18;4.30;78.60
1091;DHT22;534;48.704;9.122;2022-12-08T10:40:46;4.40;78.10
1091;DHT22;534;48.704;9.122;2022-12-08T10:43:16;4.60;77.90
1091;DHT22;534;48.704;9.122;2022-12-08T10:45:45;5.00;76.30
1091;DHT22;534;48.704;9.122;2022-12-08T10:48:16;5.40;75.00
1091;DHT22;534;48.704;9.122;2022-12-08T10:50:45;6.60;71.50
1091;DHT22;534;48.704;9.122;2022-12-08T10:53:14;7.80;66.30
1091;DHT22;534;48.704;9.122;2022-12-08T10:55:46;8.50;63.90
1091;DHT22;534;48.704;9.122;2022-12-08T10:58:23;9.00;63.20
1091;DHT22;534;48.704;9.122;2022-12-08T11:00:54;8.60;62.50
1091;DHT22;534;48.704;9.122;2022-12-08T11:03:25;8.10;64.30
1091;DHT22;534;48.704;9.122;2022-12-08T11:05:55;7.40;64.50
1091;DHT22;534;48.704;9.122;2022-12-08T11:08:22;6.90;67.10
1091;DHT22;534;48.704;9.122;2022-12-08T11:10:49;6.70;68.50
1091;DHT22;534;48.704;9.122;2022-12-08T11:13:20;6.50;68.90
1091;DHT22;534;48.704;9.122;2022-12-08T11:15:48;6.30;70.30
1091;DHT22;534;48.704;9.122;2022-12-08T11:18:24;6.30;69.70
1091;DHT22;534;48.704;9.122;2022-12-08T11:20:58;5.70;71.00
1091;DHT22;534;48.704;9.122;2022-12-08T11:23:27;5.60;71.70
1091;DHT22;534;48.704;9.122;2022-12-08T11:26:00;5.50;71.80
1091;DHT22;534;48.704;9.122;2022-12-08T11:28:28;5.50;70.90
1091;DHT22;534;48.704;9.122;2022-12-08T11:30:58;5.50;71.00
1091;DHT22;534;48.704;9.122;2022-12-08T11:33:28;5.60;71.70
1091;DHT22;534;48.704;9.122;2022-12-08T11:35:59;5.20;71.10
1091;DHT22;534;48.704;9.122;2022-12-08T11:38:27;5.30;71.80
1091;DHT22;534;48.704;9.122;2022-12-08T11:40:57;5.50;71.90
1091;DHT22;534;48.704;9.122;2022-12-08T11:43:29;5.00;72.10
1091;DHT22;534;48.704;9.122;2022-12-08T11:46:02;5.10;72.50
1091;DHT22;534;48.704;9.122;2022-12-08T11:48:34;5.20;72.90
1091;DHT22;534;48.704;9.122;2022-12-08T11:51:04;5.30;72.30
1091;DHT22;534;48.704;9.122;2022-12-08T11:53:37;5.50;72.10
1091;DHT22;534;48.704;9.122;2022-12-08T11:56:14;6.20;69.40
1091;DHT22;534;48.704;9.122;2022-12-08T11:58:45;6.70;66.80
1091;DHT22;534;48.704;9.122;2022-12-08T12:01:17;7.30;64.50
1091;DHT22;534;48.704;9.122;2022-12-08T12:03:49;7.60;63.40
1091;DHT22;534;48.704;9.122;2022-12-08T12:06:40;9.10;61.70
1091;DHT22;534;48.704;9.122;2022-12-08T12:09:15;10.80;57.00
1091;DHT22;534;48.704;9.122;2022-12-08T12:11:52;11.20;54.10
1091;DHT22;534;48.704;9.122;2022-12-08T12:15:13;10.70;55.40
1091;DHT22;534;48.704;9.122;2022-12-08T12:17:45;10.40;55.40
1091;DHT22;534;48.704;9.122;2022-12-08T12:20:18;11.30;55.70
1091;DHT22;534;48.704;9.122;2022-12-08T12:22:49;13.10;50.70
1091;DHT22;534;48.704;9.122;2022-12-08T12:25:20;12.00;51.30
1091;DHT22;534;48.704;9.122;2022-12-08T12:27:49;12.20;52.90
1091;DHT22;534;48.704;9.122;2022-12-08T12:30:22;12.80;52.00
1091;DHT22;534;48.704;9.122;2022-12-08T12:32:53;12.70;50.80
1091;DHT22;534;48.704;9.122;2022-12-08T12:35:29;11.90;51.90
1091;DHT22;534;48.704;9.122;2022-12-08T12:38:00;11.30;52.30
1091;DHT22;534;48.704;9.122;2022-12-08T12:40:34;10.60;53.80
1091;DHT22;534;48.704;9.122;2022-12-08T12:43:23;12.10;52.40
1091;DHT22;534;48.704;9.122;2022-12-08T12:49:48;16.70;43.80
1091;DHT22;534;48.704;9.122;2022-12-08T13:04:28;20.80;37.10
1091;DHT22;534;48.704;9.122;2022-12-08T13:06:55;20.20;36.70
1091;DHT22;534;48.704;9.122;2022-12-08T13:09:31;20.90;36.50
1091;DHT22;534;48.704;9.122;2022-12-08T13:12:00;21.60;35.60
1091;DHT22;534;48.704;9.122;2022-12-08T13:14:35;22.40;34.10
1091;DHT22;534;48.704;9.122;2022-12-08T13:17:06;19.10;37.30
1091;DHT22;534;48.704;9.122;2022-12-08T13:19:37;18.70;38.60
1091;DHT22;534;48.704;9.122;2022-12-08T13:28:27;13.00;49.00
1091;DHT22;534;48.704;9.122;2022-12-08T13:30:59;14.10;46.90
1091;DHT22;534;48.704;9.122;2022-12-08T13:33:29;14.00;46.40
1091;DHT22;534;48.704;9.122;2022-12-08T13:36:09;11.90;49.30
1091;DHT22;534;48.704;9.122;2022-12-08T13:38:38;11.30;51.20
1091;DHT22;534;48.704;9.122;2022-12-08T13:41:12;9.80;54.20
1091;DHT22;534;48.704;9.122;2022-12-08T13:43:42;8.90;56.70
1091;DHT22;534;48.704;9.122;2022-12-08T13:46:13;8.60;57.80
1091;DHT22;534;48.704;9.122;2022-12-08T13:48:46;7.40;60.00
1091;DHT22;534;48.704;9.122;2022-12-08T13:51:17;7.20;61.80
1091;DHT22;534;48.704;9.122;2022-12-08T13:53:56;7.00;62.00
1091;DHT22;534;48.704;9.122;2022-12-08T13:56:25;6.80;63.20
1091;DHT22;534;48.704;9.122;2022-12-08T13:59:06;6.70;63.20
1091;DHT22;534;48.704;9.122;2022-12-08T14:01:39;6.70;64.00
1091;DHT22;534;48.704;9.122;2022-12-08T14:04:13;6.30;64.80
1091;DHT22;534;48.704;9.122;2022-12-08T14:06:42;6.00;65.40
1091;DHT22;534;48.704;9.122;2022-12-08T14:09:13;6.00;65.60
1091;DHT22;534;48.704;9.122;2022-12-08T14:11:43;5.90;66.00
1091;DHT22;534;48.704;9.122;2022-12-08T14:14:16;5.90;66.70
1091;DHT22;534;48.704;9.122;2022-12-08T14:16:51;5.90;66.90
1091;DHT22;534;48.704;9.122;2022-12-08T14:19:21;5.80;66.50
1091;DHT22;534;48.704;9.122;2022-12-08T14:21:55;5.90;66.70
1091;DHT22;534;48.704;9.122;2022-12-08T14:24:23;5.90;66.40
1091;DHT22;534;48.704;9.122;2022-12-08T14:26:52;5.90;66.10
1091;DHT22;534;48.704;9.122;2022-12-08T14:29:39;6.00;66.40
1091;DHT22;534;48.704;9.122;2022-12-08T14:32:25;6.10;66.70
1091;DHT22;534;48.704;9.122;2022-12-08T14:34:54;6.00;66.50
1091;DHT22;534;48.704;9.122;2022-12-08T14:37:21;5.70;67.20
1091;DHT22;534;48.704;9.122;2022-12-08T14:39:48;5.70;67.60
1091;DHT22;534;48.704;9.122;2022-12-08T14:42:21;5.60;67.70
1091;DHT22;534;48.704;9.122;2022-12-08T14:44:55;5.50;68.30
1091;DHT22;534;48.704;9.122;2022-12-08T14:47:28;5.60;68.90
1091;DHT22;534;48.704;9.122;2022-12-08T14:49:55;5.50;68.00
1091;DHT22;534;48.704;9.122;2022-12-08T14:52:22;5.30;68.40
1091;DHT22;534;48.704;9.122;2022-12-08T14:54:50;5.20;68.80
1091;DHT22;534;48.704;9.122;2022-12-08T14:57:18;5.30;69.00
1091;DHT22;534;48.704;9.122;2022-12-08T14:59:45;5.10;69.10
1091;DHT22;534;48.704;9.122;2022-12-08T15:02:27;5.10;70.00
1091;DHT22;534;48.704;9.122;2022-12-08T15:04:59;5.20;70.00
1091;DHT22;534;48.704;9.122;2022-12-08T15:07:28;5.30;69.30
1091;DHT22;534;48.704;9.122;2022-12-08T15:10:20;5.40;69.00
1091;DHT22;534;48.704;9.122;2022-12-08T15:13:02;5.50;68.80
1091;DHT22;534;48.704;9.122;2022-12-08T15:15:31;5.60;68.80
1091;DHT22;534;48.704;9.122;2022-12-08T15:18:14;5.70;68.50
1091;DHT22;534;48.704;9.122;2022-12-08T15:20:43;5.60;68.30
1091;DHT22;534;48.704;9.122;2022-12-08T15:23:20;5.50;68.80
1091;DHT22;534;48.704;9.122;2022-12-08T15:25:47;5.50;68.80
1091;DHT22;534;48.704;9.122;2022-12-08T15:28:16;5.30;68.40
1091;DHT22;534;48.704;9.122;2022-12-08T15:30:43;5.10;69.70
1091;DHT22;534;48.704;9.122;2022-12-08T15:33:11;5.10;70.00
1091;DHT22;534;48.704;9.122;2022-12-08T15:35:38;4.90;70.30
1091;DHT22;534;48.704;9.122;2022-12-08T15:38:05;4.90;70.70
1091;DHT22;534;48.704;9.122;2022-12-08T15:40:32;4.90;71.00
1091;DHT22;534;48.704;9.122;2022-12-08T15:42:59;4.90;70.60
1091;DHT22;534;48.704;9.122;2022-12-08T15:45:29;5.00;70.70
1091;DHT22;534;48.704;9.122;2022-12-08T15:47:56;5.00;70.50
1091;DHT22;534;48.704;9.122;2022-12-08T15:50:24;4.90;70.80
1091;DHT22;534;48.704;9.122;2022-12-08T15:52:51;5.00;70.80
1091;DHT22;534;48.704;9.122;2022-12-08T15:55:19;5.10;70.80
1091;DHT22;534;48.704;9.122;2022-12-08T15:57:48;5.00;70.10
1091;DHT22;534;48.704;9.122;2022-12-08T16:00:27;4.80;70.90
1091;DHT22;534;48.704;9.122;2022-12-08T16:02:55;4.80;70.80
1091;DHT22;534;48.704;9.122;2022-12-08T16:05:23;4.90;70.80
1091;DHT22;534;48.704;9.122;2022-12-08T16:07:50;4.90;70.50
1091;DHT22;534;48.704;9.122;2022-12-08T16:10:19;4.90;70.60
1091;DHT22;534;48.704;9.122;2022-12-08T16:12:46;4.90;70.80
1091;DHT22;534;48.704;9.122;2022-12-08T16:15:33;4.80;70.80
1091;DHT22;534;48.704;9.122;2022-12-08T16:18:00;4.80;70.80
1091;DHT22;534;48.704;9.122;2022-12-08T16:20:28;4.80;71.00
1091;DHT22;534;48.704;9.122;2022-12-08T16:22:55;4.80;71.20
1091;DHT22;534;48.704;9.122;2022-12-08T16:25:22;4.80;71.40
1091;DHT22;534;48.704;9.122;2022-12-08T16:27:51;4.90;71.60
1091;DHT22;534;48.704;9.122;2022-12-08T16:30:18;5.00;71.20
1091;DHT22;534;48.704;9.122;2022-12-08T16:32:46;5.00;71.20
1091;DHT22;534;48.704;9.122;2022-12-08T16:35:13;5.10;71.10
1091;DHT22;534;48.704;9.122;2022-12-08T16:37:41;5.20;71.00
1091;DHT22;534;48.704;9.122;2022-12-08T16:40:12;5.20;70.70
1091;DHT22;534;48.704;9.122;2022-12-08T16:42:39;5.30;70.90
1091;DHT22;534;48.704;9.122;2022-12-08T16:45:07;5.30;70.20
1091;DHT22;534;48.704;9.122;2022-12-08T16:47:35;5.30;70.20
1091;DHT22;534;48.704;9.122;2022-12-08T16:50:04;5.30;69.90
1091;DHT22;534;48.704;9.122;2022-12-08T16:52:31;5.30;70.50
1091;DHT22;534;48.704;9.122;2022-12-08T16:54:59;5.30;70.90
1091;DHT22;534;48.704;9.122;2022-12-08T16:57:26;5.30;70.60
1091;DHT22;534;48.704;9.122;2022-12-08T16:59:53;5.20;70.90
1091;DHT22;534;48.704;9.122;2022-12-08T17:02:19;5.10;71.40
1091;DHT22;534;48.704;9.122;2022-12-08T17:04:46;5.10;71.60
1091;DHT22;534;48.704;9.122;2022-12-08T17:07:13;5.00;71.60
1091;DHT22;534;48.704;9.122;2022-12-08T17:09:40;5.00;72.00
1091;DHT22;534;48.704;9.122;2022-12-08T17:12:08;5.10;71.70
1091;DHT22;534;48.704;9.122;2022-12-08T17:14:35;5.10;71.60
1091;DHT22;534;48.704;9.122;2022-12-08T17:17:03;5.10;71.80
1091;DHT22;534;48.704;9.122;2022-12-08T17:19:30;5.20;71.60
1091;DHT22;534;48.704;9.122;2022-12-08T17:21:57;5.10;71.40
1091;DHT22;534;48.704;9.122;2022-12-08T17:24:24;5.10;71.30
1091;DHT22;534;48.704;9.122;2022-12-08T17:26:53;5.10;71.30
1091;DHT22;534;48.704;9.122;2022-12-08T17:29:21;5.10;71.10
1091;DHT22;534;48.704;9.122;2022-12-08T17:31:48;4.90;71.60
1091;DHT22;534;48.704;9.122;2022-12-08T17:34:15;4.80;72.10
1091;DHT22;534;48.704;9.122;2022-12-08T17:36:42;4.80;72.30
1091;DHT22;534;48.704;9.122;2022-12-08T17:39:09;4.70;72.30
1091;DHT22;534;48.704;9.122;2022-12-08T17:41:38;4.60;72.40
1091;DHT22;534;48.704;9.122;2022-12-08T17:44:09;4.60;72.70
1091;DHT22;534;48.704;9.122;2022-12-08T17:46:37;4.60;72.50
1091;DHT22;534;48.704;9.122;2022-12-08T17:49:07;4.60;72.60
1091;DHT22;534;48.704;9.122;2022-12-08T17:51:34;4.60;72.70
1091;DHT22;534;48.704;9.122;2022-12-08T17:54:01;4.60;72.90
1091;DHT22;534;48.704;9.122;2022-12-08T17:56:27;4.60;72.80
1091;DHT22;534;48.704;9.122;2022-12-08T17:58:54;4.60;72.70
1091;DHT22;534;48.704;9.122;2022-12-08T18:01:21;4.70;72.30
1091;DHT22;534;48.704;9.122;2022-12-08T18:03:50;4.70;72.00
1091;DHT22;534;48.704;9.122;2022-12-08T18:06:17;4.70;71.80
1091;DHT22;534;48.704;9.122;2022-12-08T18:08:43;4.60;71.50
1091;DHT22;534;48.704;9.122;2022-12-08T18:11:11;4.40;72.10
1091;DHT22;534;48.704;9.122;2022-12-08T18:13:38;4.40;72.80
1091;DHT22;534;48.704;9.122;2022-12-08T18:16:05;4.40;72.80
1091;DHT22;534;48.704;9.122;2022-12-08T18:18:32;4.50;72.70
1091;DHT22;534;48.704;9.122;2022-12-08T18:21:00;4.50;72.60
1091;DHT22;534;48.704;9.122;2022-12-08T18:23:27;4.60;72.70
1091;DHT22;534;48.704;9.122;2022-12-08T18:25:53;4.60;72.30
1091;DHT22;534;48.704;9.122;2022-12-08T18:28:20;4.60;72.20
1091;DHT22;534;48.704;9.122;2022-12-08T18:30:48;4.60;72.10
1091;DHT22;534;48.704;9.122;2022-12-08T18:33:15;4.50;71.70
1091;DHT22;534;48.704;9.122;2022-12-08T18:35:41;4.40;72.70
1091;DHT22;534;48.704;9.122;2022-12-08T18:38:09;4.30;73.00
1091;DHT22;534;48.704;9.122;2022-12-08T18:40:36;4.40;72.80
1091;DHT22;534;48.704;9.122;2022-12-08T18:43:03;4.40;72.90
1091;DHT22;534;48.704;9.122;2022-12-08T18:45:30;4.50;72.70
1091;DHT22;534;48.704;9.122;2022-12-08T18:47:57;4.60;72.40
1091;DHT22;534;48.704;9.122;2022-12-08T18:50:23;4.60;72.20
1091;DHT22;534;48.704;9.122;2022-12-08T18:52:50;4.60;71.80
1091;DHT22;534;48.704;9.122;2022-12-08T18:55:18;4.60;71.40
1091;DHT22;534;48.704;9.122;2022-12-08T18:57:45;4.60;71.50
1091;DHT22;534;48.704;9.122;2022-12-08T19:00:19;4.70;71.50
1091;DHT22;534;48.704;9.122;2022-12-08T19:02:45;4.70;71.50
1091;DHT22;534;48.704;9.122;2022-12-08T19:05:13;4.70;71.40
1091;DHT22;534;48.704;9.122;2022-12-08T19:07:40;4.60;71.40
1091;DHT22;534;48.704;9.122;2022-12-08T19:10:08;4.50;71.40
1091;DHT22;534;48.704;9.122;2022-12-08T19:12:37;4.50;71.70
1091;DHT22;534;48.704;9.122;2022-12-08T19:15:04;4.50;71.70
1091;DHT22;534;48.704;9.122;2022-12-08T19:17:31;4.50;71.80
1091;DHT22;534;48.704;9.122;2022-12-08T19:19:58;4.40;71.50
1091;DHT22;534;48.704;9.122;2022-12-08T19:22:25;4.30;71.20
1091;DHT22;534;48.704;9.122;2022-12-08T19:24:51;4.30;71.50
1091;DHT22;534;48.704;9.122;2022-12-08T19:27:18;4.30;71.70
1091;DHT22;534;48.704;9.122;2022-12-08T19:29:46;4.20;71.90
1091;DHT22;534;48.704;9.122;2022-12-08T19:32:13;4.20;71.60
1091;DHT22;534;48.704;9.122;2022-12-08T19:34:39;4.20;71.40
1091;DHT22;534;48.704;9.122;2022-12-08T19:37:06;4.20;71.40
1091;DHT22;534;48.704;9.122;2022-12-08T19:39:36;4.20;71.40
1091;DHT22;534;48.704;9.122;2022-12-08T19:42:21;4.10;71.40
1091;DHT22;534;48.704;9.122;2022-12-08T19:45:09;4.10;71.50
1091;DHT22;534;48.704;9.122;2022-12-08T19:47:37;4.10;71.60
1091;DHT22;534;48.704;9.122;2022-12-08T19:50:05;4.00;71.30
1091;DHT22;534;48.704;9.122;2022-12-08T19:52:51;4.00;71.30
1091;DHT22;534;48.704;9.122;2022-12-08T19:55:17;4.00;71.60
1091;DHT22;534;48.704;9.122;2022-12-08T19:57:44;3.90;71.60
1091;DHT22;534;48.704;9.122;2022-12-08T20:00:13;3.90;71.80
1091;DHT22;534;48.704;9.122;2022-12-08T20:02:40;3.80;72.20
1091;DHT22;534;48.704;9.122;2022-12-08T20:05:12;3.80;72.40
1091;DHT22;534;48.704;9.122;2022-12-08T20:07:39;3.80;72.20
1091;DHT22;534;48.704;9.122;2022-12-08T20:10:08;3.80;72.40
1091;DHT22;534;48.704;9.122;2022-12-08T20:12:37;3.80;72.50
1091;DHT22;534;48.704;9.122;2022-12-08T20:15:04;3.70;71.80
1091;DHT22;534;48.704;9.122;2022-12-08T20:17:34;3.70;71.90
1091;DHT22;534;48.704;9.122;2022-12-08T20:20:01;3.70;72.10
1091;DHT22;534;48.704;9.122;2022-12-08T20:22:27;3.70;72.10
1091;DHT22;534;48.704;9.122;2022-12-08T20:25:05;3.60;72.30
1091;DHT22;534;48.704;9.122;2022-12-08T20:27:32;3.60;72.60
1091;DHT22;534;48.704;9.122;2022-12-08T20:29:59;3.60;73.00
1091;DHT22;534;48.704;9.122;2022-12-08T20:32:26;3.60;73.30
1091;DHT22;534;48.704;9.122;2022-12-08T20:34:54;3.60;73.30
1091;DHT22;534;48.704;9.122;2022-12-08T20:37:21;3.60;73.20
1091;DHT22;534;48.704;9.122;2022-12-08T20:39:47;3.50;73.50
1091;DHT22;534;48.704;9.122;2022-12-08T20:42:14;3.50;73.30
1091;DHT22;534;48.704;9.122;2022-12-08T20:44:41;3.40;73.30
1091;DHT22;534;48.704;9.122;2022-12-08T20:47:09;3.40;73.60
1091;DHT22;534;48.704;9.122;2022-12-08T20:49:37;3.40;73.60
1091;DHT22;534;48.704;9.122;2022-12-08T20:52:05;3.30;73.40
1091;DHT22;534;48.704;9.122;2022-12-08T20:54:32;3.30;73.30
1091;DHT22;534;48.704;9.122;2022-12-08T20:56:59;3.30;73.30
1091;DHT22;534;48.704;9.122;2022-12-08T20:59:26;3.30;73.40
1091;DHT22;534;48.704;9.122;2022-12-08T21:01:53;3.30;73.20
1091;DHT22;534;48.704;9.122;2022-12-08T21:04:20;3.20;73.20
1091;DHT22;534;48.704;9.122;2022-12-08T21:06:47;3.20;73.50
1091;DHT22;534;48.704;9.122;2022-12-08T21:09:15;3.20;73.50